createdAt,value
2023-02-23T00:00:28.514Z,23.30
2023-02-23T00:01:00.394Z,22.67
2023-02-23T00:01:32.091Z,22.80
2023-02-23T00:02:05.869Z,22.70
2023-02-23T00:02:37.622Z,22.10
2023-02-23T00:03:09.562Z,22.77
2023-02-23T00:03:42.108Z,22.33
2023-02-23T00:04:13.899Z,22.27
2023-02-23T00:04:45.698Z,23.33
2023-02-23T00:05:17.732Z,22.73
2023-02-23T00:05:49.402Z,22.53
2023-02-23T00:06:21.169Z,23.00
2023-02-23T00:06:53.616Z,22.50
2023-02-23T00:07:27.132Z,22.57
2023-02-23T00:07:59.164Z,23.10
2023-02-23T00:08:31.071Z,23.43
2023-02-23T00:09:12.128Z,23.20
2023-02-23T00:09:44.147Z,22.63
2023-02-23T00:10:15.840Z,24.40
2023-02-23T00:10:47.547Z,22.90
2023-02-23T00:11:21.038Z,24.07
2023-02-23T00:11:54.798Z,23.70
2023-02-23T00:12:27.046Z,23.07
2023-02-23T00:12:59.596Z,23.37
2023-02-23T00:13:37.641Z,23.13
2023-02-23T00:14:09.340Z,25.20
2023-02-23T00:14:41.143Z,24.63
2023-02-23T00:15:13.414Z,24.30
2023-02-23T00:15:45.091Z,24.27
2023-02-23T00:16:22.118Z,26.47
2023-02-23T00:16:55.087Z,25.50
2023-02-23T00:17:26.816Z,24.57
2023-02-23T00:17:58.887Z,23.87
2023-02-23T00:18:30.567Z,24.53
2023-02-23T00:19:02.521Z,24.43
2023-02-23T00:19:37.858Z,24.80
2023-02-23T00:20:12.025Z,25.93
2023-02-23T00:20:48.027Z,24.87
2023-02-23T00:21:26.668Z,24.40
2023-02-23T00:21:58.938Z,24.57
2023-02-23T00:22:30.617Z,24.60
2023-02-23T00:23:02.291Z,25.93
2023-02-23T00:23:33.943Z,26.43
2023-02-23T00:24:08.985Z,24.43
2023-02-23T00:24:42.719Z,25.47
2023-02-23T00:25:15.450Z,26.67
2023-02-23T00:25:47.248Z,25.13
2023-02-23T00:26:21.117Z,25.03
2023-02-23T00:26:53.470Z,25.03
2023-02-23T00:27:25.578Z,24.03
2023-02-23T00:27:57.294Z,24.80
2023-02-23T00:28:28.955Z,25.40
2023-02-23T00:29:03.048Z,23.23
2023-02-23T00:29:39.514Z,24.80
2023-02-23T00:30:15.768Z,25.23
2023-02-23T00:30:47.490Z,24.37
2023-02-23T00:31:26.270Z,24.33
2023-02-23T00:31:58.097Z,23.93
2023-02-23T00:32:30.093Z,23.37
2023-02-23T00:33:01.828Z,23.73
2023-02-23T00:33:34.801Z,24.13
2023-02-23T00:34:07.546Z,24.57
2023-02-23T00:34:39.290Z,24.73
2023-02-23T00:35:17.663Z,24.83
2023-02-23T00:35:49.343Z,23.03
2023-02-23T00:36:23.828Z,24.90
2023-02-23T00:36:55.676Z,24.93
2023-02-23T00:37:27.363Z,24.80
2023-02-23T00:37:59.071Z,25.07
2023-02-23T00:38:36.110Z,24.23
2023-02-23T00:39:25.184Z,24.30
2023-02-23T00:39:57.201Z,25.63
2023-02-23T00:40:30.079Z,26.90
2023-02-23T00:41:09.292Z,26.60
2023-02-23T00:41:42.356Z,25.37
2023-02-23T00:42:14.035Z,25.73
2023-02-23T00:42:47.364Z,25.20
2023-02-23T00:43:20.135Z,25.50
2023-02-23T00:43:54.945Z,28.07
2023-02-23T00:44:26.649Z,25.70
2023-02-23T00:44:58.336Z,26.80
2023-02-23T00:45:30.795Z,27.10
2023-02-23T00:46:05.699Z,26.90
2023-02-23T00:46:37.460Z,26.23
2023-02-23T00:47:09.161Z,25.27
2023-02-23T00:47:43.151Z,25.87
2023-02-23T00:48:14.845Z,26.00
2023-02-23T00:48:46.672Z,26.40
2023-02-23T00:49:20.339Z,26.43
2023-02-23T00:49:52.016Z,24.97
2023-02-23T00:50:23.811Z,26.40
2023-02-23T00:51:02.889Z,27.47
2023-02-23T00:51:34.575Z,28.30
2023-02-23T00:52:06.242Z,27.53
2023-02-23T00:52:38.937Z,26.03
2023-02-23T00:53:11.660Z,26.00
2023-02-23T00:53:44.371Z,26.93
2023-02-23T00:54:17.942Z,27.60
2023-02-23T00:54:49.818Z,26.13
2023-02-23T00:55:21.513Z,26.13
2023-02-23T00:55:54.685Z,27.63
2023-02-23T00:56:27.335Z,26.80
2023-02-23T00:56:59.011Z,26.77
2023-02-23T00:57:30.654Z,27.13
2023-02-23T00:58:04.414Z,28.20
2023-02-23T00:58:36.712Z,27.17
2023-02-23T00:59:08.658Z,25.93
2023-02-23T00:59:40.382Z,26.27
2023-02-23T01:00:20.548Z,27.03
2023-02-23T01:00:53.648Z,27.10
2023-02-23T01:01:26.998Z,26.73
2023-02-23T01:02:00.942Z,27.77
2023-02-23T01:02:32.757Z,28.73
2023-02-23T01:03:04.508Z,28.17
2023-02-23T01:03:37.423Z,27.47
2023-02-23T01:04:10.803Z,27.33
2023-02-23T01:04:42.533Z,28.27
2023-02-23T01:05:15.254Z,26.30
2023-02-23T01:05:50.023Z,27.47
2023-02-23T01:06:22.224Z,26.97
2023-02-23T01:06:53.951Z,28.50
2023-02-23T01:07:25.942Z,28.60
2023-02-23T01:07:57.643Z,26.60
2023-02-23T01:08:30.320Z,27.03
2023-02-23T01:09:09.376Z,26.77
2023-02-23T01:09:41.060Z,28.37
2023-02-23T01:10:19.889Z,28.80
2023-02-23T01:10:54.635Z,28.70
2023-02-23T01:11:28.513Z,29.47
2023-02-23T01:12:01.747Z,28.40
2023-02-23T01:12:33.508Z,29.07
2023-02-23T01:13:06.081Z,28.13
2023-02-23T01:13:39.406Z,29.27
2023-02-23T01:14:11.200Z,28.30
2023-02-23T01:14:42.925Z,29.17
2023-02-23T01:15:15.004Z,28.73
2023-02-23T01:15:48.155Z,28.37
2023-02-23T01:16:23.184Z,29.27
2023-02-23T01:16:55.605Z,29.10
2023-02-23T01:17:27.739Z,28.27
2023-02-23T01:17:59.435Z,28.13
2023-02-23T01:18:31.170Z,28.37
2023-02-23T01:19:05.157Z,28.43
2023-02-23T01:19:37.036Z,29.13
2023-02-23T01:20:17.372Z,28.00
2023-02-23T01:20:50.659Z,27.80
2023-02-23T01:21:28.746Z,28.87
2023-02-23T01:22:02.290Z,29.57
2023-02-23T01:22:33.976Z,28.90
2023-02-23T01:23:07.527Z,29.70
2023-02-23T01:23:39.229Z,28.37
2023-02-23T01:24:12.174Z,27.93
2023-02-23T01:24:43.872Z,28.00
2023-02-23T01:25:16.615Z,29.33
2023-02-23T01:25:48.476Z,30.77
2023-02-23T01:26:29.199Z,29.53
2023-02-23T01:27:00.892Z,30.77
2023-02-23T01:27:33.946Z,30.20
2023-02-23T01:28:05.814Z,29.33
2023-02-23T01:28:37.629Z,29.33
2023-02-23T01:29:16.088Z,30.10
2023-02-23T01:29:47.803Z,29.77
2023-02-23T01:30:19.605Z,29.73
2023-02-23T01:30:51.567Z,30.40
2023-02-23T01:31:25.622Z,31.80
2023-02-23T01:31:57.451Z,32.43
2023-02-23T01:32:32.277Z,31.00
2023-02-23T01:33:04.346Z,30.13
2023-02-23T01:33:36.051Z,30.00
2023-02-23T01:34:09.736Z,30.10
2023-02-23T01:34:41.423Z,30.57
2023-02-23T01:35:13.973Z,30.63
2023-02-23T01:35:45.732Z,31.60
2023-02-23T01:36:18.740Z,31.70
2023-02-23T01:36:50.923Z,30.73
2023-02-23T01:37:22.676Z,31.10
2023-02-23T01:37:54.969Z,32.03
2023-02-23T01:38:26.770Z,30.93
2023-02-23T01:39:00.198Z,31.20
2023-02-23T01:39:33.131Z,31.00
2023-02-23T01:40:13.702Z,29.83
2023-02-23T01:40:47.429Z,30.87
2023-02-23T01:41:19.409Z,31.00
2023-02-23T01:41:55.350Z,31.47
2023-02-23T01:42:27.066Z,32.17
2023-02-23T01:43:14.082Z,31.30
2023-02-23T01:44:14.738Z,31.37
2023-02-23T01:44:46.445Z,30.47
2023-02-23T01:45:40.459Z,31.33
2023-02-23T01:46:12.150Z,30.47
2023-02-23T01:46:46.414Z,30.23
2023-02-23T01:47:20.465Z,30.87
2023-02-23T01:47:55.994Z,29.87
2023-02-23T01:48:34.345Z,32.27
2023-02-23T01:49:12.133Z,33.03
2023-02-23T01:49:43.887Z,31.53
2023-02-23T01:50:16.649Z,32.57
2023-02-23T01:51:06.820Z,32.63
2023-02-23T01:51:49.649Z,31.63
2023-02-23T01:52:21.399Z,33.37
2023-02-23T01:52:54.353Z,32.77
2023-02-23T01:53:29.372Z,31.50
2023-02-23T01:54:11.211Z,31.73
2023-02-23T01:54:52.010Z,30.83
2023-02-23T01:55:32.074Z,31.30
2023-02-23T01:56:12.183Z,31.00
2023-02-23T01:56:57.979Z,32.93
2023-02-23T01:57:29.914Z,32.67
2023-02-23T01:58:15.375Z,33.00
2023-02-23T01:58:52.511Z,31.53
2023-02-23T01:59:36.220Z,31.93
2023-02-23T02:00:13.251Z,31.47
2023-02-23T02:00:50.271Z,31.77
2023-02-23T02:01:23.180Z,32.43
2023-02-23T02:01:56.548Z,32.33
2023-02-23T02:02:33.844Z,33.97
2023-02-23T02:03:14.133Z,34.23
2023-02-23T02:03:51.532Z,32.20
2023-02-23T02:04:25.380Z,32.83
2023-02-23T02:04:57.486Z,32.90
2023-02-23T02:05:30.045Z,32.83
2023-02-23T02:06:04.420Z,33.00
2023-02-23T02:06:38.467Z,33.37
2023-02-23T02:07:20.470Z,31.57
2023-02-23T02:07:58.849Z,33.13
2023-02-23T02:08:34.088Z,33.50
2023-02-23T02:09:15.632Z,32.63
2023-02-23T02:10:17.838Z,32.40
2023-02-23T02:10:56.061Z,33.23
2023-02-23T02:11:36.806Z,33.10
2023-02-23T02:12:12.492Z,33.40
2023-02-23T02:12:52.448Z,33.27
2023-02-23T02:13:31.061Z,31.93
2023-02-23T02:14:30.964Z,34.43
2023-02-23T02:15:05.481Z,32.33
2023-02-23T02:15:54.106Z,34.23
2023-02-23T02:16:34.681Z,34.20
2023-02-23T02:17:34.755Z,33.87
2023-02-23T02:18:12.100Z,32.70
2023-02-23T02:19:08.928Z,32.90
2023-02-23T02:20:14.926Z,33.27
2023-02-23T02:21:20.644Z,35.03
2023-02-23T02:22:22.831Z,32.67
2023-02-23T02:23:27.426Z,33.17
2023-02-23T02:24:22.101Z,32.43
2023-02-23T02:25:12.791Z,34.73
2023-02-23T02:25:56.725Z,33.67
2023-02-23T02:26:29.557Z,34.13
2023-02-23T02:27:38.471Z,34.47
2023-02-23T02:28:22.281Z,33.70
2023-02-23T02:29:36.495Z,33.70
2023-02-23T02:30:34.462Z,34.73
2023-02-23T02:31:43.614Z,34.43
2023-02-23T02:32:47.714Z,34.73
2023-02-23T02:33:22.105Z,37.00
2023-02-23T02:34:07.461Z,35.20
2023-02-23T02:34:50.587Z,33.77
2023-02-23T02:35:46.866Z,34.07
2023-02-23T02:36:56.193Z,33.13
2023-02-23T02:37:56.809Z,35.20
2023-02-23T02:38:50.635Z,35.27
2023-02-23T02:40:16.338Z,34.40
2023-02-23T02:41:01.453Z,36.43
2023-02-23T02:41:53.681Z,35.20
2023-02-23T02:42:25.315Z,37.17
2023-02-23T02:43:14.644Z,35.20
2023-02-23T02:44:03.616Z,35.37
2023-02-23T02:45:07.827Z,35.10
2023-02-23T02:45:59.208Z,36.30
2023-02-23T02:46:37.954Z,33.83
2023-02-23T02:47:19.996Z,32.90
2023-02-23T02:48:18.989Z,35.53
2023-02-23T02:48:57.885Z,35.70
2023-02-23T02:49:44.316Z,36.30
2023-02-23T02:50:37.460Z,34.30
2023-02-23T02:51:17.588Z,35.70
2023-02-23T02:52:08.856Z,35.17
2023-02-23T02:52:50.054Z,37.20
2023-02-23T02:53:51.181Z,36.23
2023-02-23T02:54:31.167Z,35.53
2023-02-23T02:55:12.307Z,35.60
2023-02-23T02:55:48.446Z,37.10
2023-02-23T02:56:26.494Z,35.77
2023-02-23T02:57:02.158Z,35.33
2023-02-23T02:57:35.256Z,34.87
2023-02-23T02:58:08.460Z,36.47
2023-02-23T02:58:43.682Z,35.93
2023-02-23T02:59:37.265Z,36.30
2023-02-23T03:00:32.802Z,37.63
2023-02-23T03:01:33.191Z,37.17
2023-02-23T03:02:25.243Z,36.43
2023-02-23T03:03:15.463Z,35.47
2023-02-23T03:04:06.905Z,36.77
2023-02-23T03:04:57.220Z,35.10
2023-02-23T03:06:09.903Z,36.33
2023-02-23T03:07:21.900Z,36.57
2023-02-23T03:08:53.031Z,34.87
2023-02-23T03:09:49.136Z,36.83
2023-02-23T03:10:48.388Z,36.37
2023-02-23T03:11:38.945Z,37.40
2023-02-23T03:12:46.651Z,37.87
2023-02-23T03:14:02.602Z,36.37
2023-02-23T03:14:52.859Z,37.97
2023-02-23T03:15:43.229Z,36.90
2023-02-23T03:16:54.531Z,36.43
2023-02-23T03:17:57.029Z,37.67
2023-02-23T03:18:53.128Z,38.53
2023-02-23T03:19:53.488Z,36.17
2023-02-23T03:20:52.773Z,37.07
2023-02-23T03:22:10.614Z,36.77
2023-02-23T03:23:41.457Z,38.50
2023-02-23T03:24:58.311Z,37.30
2023-02-23T03:26:06.977Z,35.57
2023-02-23T03:27:11.586Z,35.17
2023-02-23T03:28:09.757Z,35.70
2023-02-23T03:29:16.871Z,36.23
2023-02-23T03:30:24.105Z,36.50
2023-02-23T03:31:39.528Z,38.20
2023-02-23T03:33:02.050Z,37.70
2023-02-23T03:34:13.491Z,37.60
2023-02-23T03:35:24.143Z,38.90
2023-02-23T03:36:23.589Z,36.73
2023-02-23T03:37:41.794Z,38.30
2023-02-23T03:38:45.202Z,36.90
2023-02-23T03:40:04.870Z,37.73
2023-02-23T03:41:01.249Z,39.13
2023-02-23T03:41:56.020Z,36.90
2023-02-23T03:42:55.129Z,39.77
2023-02-23T03:43:56.753Z,39.70
2023-02-23T03:44:54.066Z,38.20
2023-02-23T03:45:46.398Z,38.77
2023-02-23T03:46:38.481Z,38.50
2023-02-23T03:47:33.170Z,39.53
2023-02-23T03:48:28.424Z,39.40
2023-02-23T03:49:23.538Z,39.67
2023-02-23T03:50:16.564Z,38.57
2023-02-23T03:51:12.984Z,38.40
2023-02-23T03:52:10.472Z,40.27
2023-02-23T03:53:11.182Z,39.27
2023-02-23T03:54:12.845Z,39.30
2023-02-23T03:55:11.660Z,38.10
2023-02-23T03:56:11.186Z,38.73
2023-02-23T03:57:07.237Z,37.50
2023-02-23T03:58:00.384Z,40.63
2023-02-23T03:58:58.881Z,39.00
2023-02-23T03:59:56.407Z,40.60
2023-02-23T04:00:52.213Z,40.13
2023-02-23T04:01:46.001Z,39.77
2023-02-23T04:02:38.969Z,40.40
2023-02-23T04:03:33.465Z,38.37
2023-02-23T04:04:27.990Z,40.33
2023-02-23T04:05:23.942Z,39.77
2023-02-23T04:06:16.325Z,38.20
2023-02-23T04:07:08.055Z,39.17
2023-02-23T04:08:00.245Z,40.40
2023-02-23T04:08:58.714Z,39.10
2023-02-23T04:09:50.441Z,39.73
2023-02-23T04:10:43.610Z,39.20
2023-02-23T04:11:49.912Z,39.67
2023-02-23T04:12:52.785Z,40.17
2023-02-23T04:13:28.482Z,39.37
2023-02-23T04:14:06.392Z,39.57
2023-02-23T04:14:56.019Z,38.50
2023-02-23T04:15:33.864Z,39.73
2023-02-23T04:16:07.889Z,39.37
2023-02-23T04:16:40.137Z,39.27
2023-02-23T04:17:15.331Z,39.63
2023-02-23T04:17:47.239Z,39.23
2023-02-23T04:18:27.029Z,39.03
2023-02-23T04:18:59.226Z,39.23
2023-02-23T04:19:30.935Z,37.87
2023-02-23T04:20:03.553Z,39.13
2023-02-23T04:20:35.371Z,39.03
2023-02-23T04:21:07.461Z,37.70
2023-02-23T04:21:39.284Z,39.03
2023-02-23T04:22:10.960Z,39.10
2023-02-23T04:22:42.820Z,39.53
2023-02-23T04:23:14.873Z,37.57
2023-02-23T04:23:46.945Z,39.63
2023-02-23T04:24:18.621Z,39.27
2023-02-23T04:24:51.030Z,39.37
2023-02-23T04:25:23.094Z,39.00
2023-02-23T04:25:56.303Z,39.10
2023-02-23T04:26:28.021Z,39.80
2023-02-23T04:26:59.731Z,40.43
2023-02-23T04:27:31.551Z,39.93
2023-02-23T04:28:03.746Z,38.70
2023-02-23T04:28:35.460Z,38.97
2023-02-23T04:29:07.153Z,38.60
2023-02-23T04:29:39.246Z,40.27
2023-02-23T04:30:11.664Z,41.13
2023-02-23T04:30:43.724Z,38.57
2023-02-23T04:31:16.446Z,38.40
2023-02-23T04:31:48.819Z,39.00
2023-02-23T04:32:21.131Z,40.83
2023-02-23T04:32:53.218Z,42.20
2023-02-23T04:33:25.618Z,40.27
2023-02-23T04:33:57.716Z,39.27
2023-02-23T04:34:29.396Z,40.63
2023-02-23T04:35:01.094Z,40.10
2023-02-23T04:35:33.060Z,39.30
2023-02-23T04:36:05.204Z,40.67
2023-02-23T04:36:36.931Z,39.93
2023-02-23T04:37:08.860Z,40.23
2023-02-23T04:37:40.628Z,40.27
2023-02-23T04:38:12.354Z,41.57
2023-02-23T04:38:44.100Z,41.37
2023-02-23T04:39:15.874Z,40.63
2023-02-23T04:39:49.975Z,40.97
2023-02-23T04:40:24.219Z,39.57
2023-02-23T04:40:56.242Z,40.13
2023-02-23T04:41:27.970Z,40.10
2023-02-23T04:41:59.675Z,39.07
2023-02-23T04:42:32.043Z,39.37
2023-02-23T04:43:03.884Z,38.90
2023-02-23T04:43:35.595Z,41.27
2023-02-23T04:44:07.331Z,39.57
2023-02-23T04:44:39.044Z,38.07
2023-02-23T04:45:11.225Z,39.27
2023-02-23T04:45:44.018Z,40.17
2023-02-23T04:46:15.770Z,41.27
2023-02-23T04:46:47.538Z,40.77
2023-02-23T04:47:19.295Z,39.80
2023-02-23T04:47:51.446Z,38.87
2023-02-23T04:48:25.186Z,38.67
2023-02-23T04:48:56.888Z,38.73
2023-02-23T04:49:28.607Z,40.67
2023-02-23T04:50:00.310Z,41.40
2023-02-23T04:50:32.706Z,38.23
2023-02-23T04:51:04.783Z,40.30
2023-02-23T04:51:37.511Z,39.23
2023-02-23T04:52:09.392Z,38.57
2023-02-23T04:52:42.290Z,39.27
2023-02-23T04:53:13.977Z,39.37
2023-02-23T04:53:45.949Z,40.67
2023-02-23T04:54:18.390Z,39.00
2023-02-23T04:54:50.093Z,38.47
2023-02-23T04:55:24.298Z,39.37
2023-02-23T04:55:56.228Z,40.10
2023-02-23T04:56:28.506Z,40.77
2023-02-23T04:57:00.205Z,39.00
2023-02-23T04:57:31.914Z,39.63
2023-02-23T04:58:03.606Z,39.70
2023-02-23T04:58:35.332Z,39.73
2023-02-23T04:59:07.041Z,39.70
2023-02-23T04:59:38.782Z,36.93
2023-02-23T05:00:11.281Z,37.43
2023-02-23T05:00:43.190Z,37.90
2023-02-23T05:01:14.969Z,38.43
2023-02-23T05:01:46.869Z,38.00
2023-02-23T05:02:18.658Z,38.57
2023-02-23T05:02:50.855Z,38.90
2023-02-23T05:03:22.660Z,38.27
2023-02-23T05:03:54.711Z,38.70
2023-02-23T05:04:26.457Z,39.00
2023-02-23T05:04:58.219Z,38.60
2023-02-23T05:05:30.018Z,37.90
2023-02-23T05:06:02.130Z,39.13
2023-02-23T05:06:34.286Z,39.57
2023-02-23T05:07:06.294Z,51.63
2023-02-23T05:07:38.913Z,151.80
2023-02-23T05:08:10.736Z,97.67
2023-02-23T05:08:42.470Z,74.63
2023-02-23T05:09:14.230Z,79.83
2023-02-23T05:09:45.920Z,119.40
2023-02-23T05:10:17.715Z,121.63
2023-02-23T05:10:49.398Z,116.57
2023-02-23T05:11:21.225Z,50.73
2023-02-23T05:11:52.980Z,174.37
2023-02-23T05:12:24.655Z,97.83
2023-02-23T05:12:57.465Z,103.47
2023-02-23T05:13:29.233Z,189.47
2023-02-23T05:14:01.578Z,63.63
2023-02-23T05:14:33.372Z,62.97
2023-02-23T05:15:05.869Z,44.27
2023-02-23T05:15:38.692Z,42.10
2023-02-23T05:16:10.448Z,41.93
2023-02-23T05:16:42.132Z,39.30
2023-02-23T05:17:13.816Z,38.60
2023-02-23T05:17:45.522Z,39.73
2023-02-23T05:18:17.490Z,42.10
2023-02-23T05:18:49.809Z,42.77
2023-02-23T05:19:21.925Z,40.93
2023-02-23T05:19:53.712Z,39.03
2023-02-23T05:20:25.442Z,38.13
2023-02-23T05:21:09.024Z,38.27
2023-02-23T05:21:41.606Z,39.40
2023-02-23T05:22:13.317Z,38.50
2023-02-23T05:22:45.146Z,38.33
2023-02-23T05:23:16.924Z,37.83
2023-02-23T05:23:48.693Z,37.60
2023-02-23T05:24:20.730Z,38.10
2023-02-23T05:24:52.442Z,38.07
2023-02-23T05:25:24.230Z,38.17
2023-02-23T05:26:01.432Z,61.70
2023-02-23T05:26:33.380Z,138.27
2023-02-23T05:27:05.100Z,165.67
2023-02-23T05:27:36.988Z,126.17
2023-02-23T05:28:08.722Z,114.83
2023-02-23T05:28:42.054Z,59.23
2023-02-23T05:29:13.782Z,58.27
2023-02-23T05:29:45.463Z,44.10
2023-02-23T05:30:17.351Z,40.20
2023-02-23T05:30:49.187Z,42.80
2023-02-23T05:31:21.284Z,58.13
2023-02-23T05:31:53.345Z,64.20
2023-02-23T05:32:25.242Z,62.73
2023-02-23T05:32:57.018Z,47.13
2023-02-23T05:33:28.740Z,43.27
2023-02-23T05:34:00.490Z,38.90
2023-02-23T05:34:32.251Z,38.67
2023-02-23T05:35:04.169Z,37.40
2023-02-23T05:35:35.863Z,37.40
2023-02-23T05:36:11.853Z,39.87
2023-02-23T05:36:43.679Z,39.93
2023-02-23T05:37:15.575Z,37.17
2023-02-23T05:37:47.317Z,36.97
2023-02-23T05:38:19.643Z,38.50
2023-02-23T05:38:51.573Z,37.33
2023-02-23T05:39:23.242Z,36.53
2023-02-23T05:39:55.504Z,36.23
2023-02-23T05:40:27.352Z,35.67
2023-02-23T05:40:59.144Z,36.87
2023-02-23T05:41:30.908Z,37.43
2023-02-23T05:42:02.594Z,36.50
2023-02-23T05:42:34.296Z,39.27
2023-02-23T05:43:06.576Z,40.37
2023-02-23T05:43:38.361Z,36.20
2023-02-23T05:44:10.057Z,36.50
2023-02-23T05:44:42.111Z,37.60
2023-02-23T05:45:14.685Z,36.67
2023-02-23T05:45:46.345Z,37.50
2023-02-23T05:46:22.533Z,38.23
2023-02-23T05:46:54.341Z,35.73
2023-02-23T05:47:26.042Z,35.87
2023-02-23T05:47:57.739Z,35.60
2023-02-23T05:48:29.593Z,37.50
2023-02-23T05:49:02.163Z,37.77
2023-02-23T05:49:33.936Z,37.97
2023-02-23T05:50:08.318Z,38.10
2023-02-23T05:50:40.057Z,37.77
2023-02-23T05:51:15.177Z,37.00
2023-02-23T05:51:46.938Z,37.27
2023-02-23T05:52:18.677Z,37.40
2023-02-23T05:52:50.456Z,39.17
2023-02-23T05:53:23.268Z,39.37
2023-02-23T05:53:55.113Z,37.93
2023-02-23T05:54:27.458Z,37.57
2023-02-23T05:54:59.221Z,36.93
2023-02-23T05:55:31.494Z,37.17
2023-02-23T05:56:05.344Z,37.43
2023-02-23T05:56:37.120Z,38.10
2023-02-23T05:57:08.870Z,38.13
2023-02-23T05:57:41.397Z,37.37
2023-02-23T05:58:13.103Z,36.70
2023-02-23T05:58:44.840Z,37.03
2023-02-23T05:59:17.509Z,38.23
2023-02-23T05:59:49.195Z,38.57
2023-02-23T06:00:22.090Z,37.43
2023-02-23T06:00:54.055Z,37.17
2023-02-23T06:01:27.000Z,37.93
2023-02-23T06:01:58.726Z,36.77
2023-02-23T06:02:30.436Z,38.20
2023-02-23T06:03:02.290Z,37.73
2023-02-23T06:03:34.544Z,38.20
2023-02-23T06:04:06.450Z,37.83
2023-02-23T06:04:38.198Z,37.00
2023-02-23T06:05:11.990Z,38.50
2023-02-23T06:05:53.611Z,38.33
2023-02-23T06:06:25.791Z,36.80
2023-02-23T06:06:57.527Z,37.13
2023-02-23T06:07:29.321Z,36.80
2023-02-23T06:08:01.068Z,35.10
2023-02-23T06:08:33.148Z,34.43
2023-02-23T06:09:05.024Z,35.03
2023-02-23T06:09:36.744Z,34.47
2023-02-23T06:10:08.937Z,34.87
2023-02-23T06:10:40.640Z,34.70
2023-02-23T06:11:12.420Z,33.80
2023-02-23T06:11:44.701Z,32.97
2023-02-23T06:12:16.491Z,33.27
2023-02-23T06:12:48.272Z,34.00
2023-02-23T06:13:21.527Z,33.07
2023-02-23T06:13:53.393Z,34.40
2023-02-23T06:14:25.126Z,34.77
2023-02-23T06:14:57.238Z,34.50
2023-02-23T06:15:30.030Z,34.30
2023-02-23T06:16:02.352Z,33.23
2023-02-23T06:16:34.210Z,32.97
2023-02-23T06:17:06.398Z,33.33
2023-02-23T06:17:38.356Z,32.83
2023-02-23T06:18:10.568Z,33.20
2023-02-23T06:18:42.339Z,33.87
2023-02-23T06:19:14.226Z,33.67
2023-02-23T06:19:45.933Z,34.87
2023-02-23T06:20:17.737Z,33.20
2023-02-23T06:20:49.678Z,35.27
2023-02-23T06:21:21.563Z,36.90
2023-02-23T06:21:53.273Z,35.10
2023-02-23T06:22:25.049Z,35.23
2023-02-23T06:22:57.762Z,35.93
2023-02-23T06:23:30.331Z,33.80
2023-02-23T06:24:02.578Z,34.13
2023-02-23T06:24:34.460Z,35.17
2023-02-23T06:25:12.687Z,34.47
2023-02-23T06:25:45.644Z,35.23
2023-02-23T06:26:17.522Z,35.53
2023-02-23T06:26:49.264Z,36.03
2023-02-23T06:27:20.975Z,36.67
2023-02-23T06:27:52.653Z,34.17
2023-02-23T06:28:24.372Z,35.30
2023-02-23T06:28:57.295Z,37.00
2023-02-23T06:29:29.029Z,36.43
2023-02-23T06:30:00.714Z,34.57
2023-02-23T06:30:32.415Z,36.10
2023-02-23T06:31:04.332Z,36.23
2023-02-23T06:31:36.181Z,37.30
2023-02-23T06:32:08.043Z,35.13
2023-02-23T06:32:39.969Z,36.37
2023-02-23T06:33:11.722Z,36.73
2023-02-23T06:33:43.411Z,35.53
2023-02-23T06:34:15.142Z,35.53
2023-02-23T06:34:46.827Z,36.27
2023-02-23T06:35:18.726Z,35.20
2023-02-23T06:35:50.540Z,35.10
2023-02-23T06:36:22.617Z,33.83
2023-02-23T06:36:54.325Z,34.23
2023-02-23T06:37:26.109Z,34.40
2023-02-23T06:37:58.274Z,33.30
2023-02-23T06:38:30.053Z,34.07
2023-02-23T06:39:02.211Z,34.00
2023-02-23T06:39:33.910Z,33.67
2023-02-23T06:40:07.552Z,34.33
2023-02-23T06:40:40.184Z,34.43
2023-02-23T06:41:12.864Z,34.77
2023-02-23T06:41:44.554Z,33.30
2023-02-23T06:42:16.794Z,33.80
2023-02-23T06:42:48.703Z,32.63
2023-02-23T06:43:22.816Z,33.73
2023-02-23T06:43:55.643Z,35.57
2023-02-23T06:44:27.414Z,35.23
2023-02-23T06:44:59.098Z,34.83
2023-02-23T06:45:31.900Z,34.93
2023-02-23T06:46:04.693Z,35.83
2023-02-23T06:46:36.552Z,34.23
2023-02-23T06:47:09.144Z,34.57
2023-02-23T06:47:41.174Z,32.97
2023-02-23T06:48:12.877Z,32.03
2023-02-23T06:48:44.615Z,33.27
2023-02-23T06:49:16.653Z,32.83
2023-02-23T06:49:48.442Z,31.97
2023-02-23T06:50:20.207Z,33.03
2023-02-23T06:50:52.539Z,33.93
2023-02-23T06:51:24.872Z,33.93
2023-02-23T06:51:56.981Z,34.03
2023-02-23T06:52:29.141Z,34.03
2023-02-23T06:53:00.919Z,33.63
2023-02-23T06:53:33.671Z,34.80
2023-02-23T06:54:05.479Z,34.00
2023-02-23T06:54:40.102Z,34.10
2023-02-23T06:55:13.342Z,34.60
2023-02-23T06:55:45.053Z,34.37
2023-02-23T06:56:16.737Z,33.37
2023-02-23T06:56:48.834Z,32.83
2023-02-23T06:57:21.862Z,33.03
2023-02-23T06:57:54.509Z,33.63
2023-02-23T06:58:26.375Z,33.57
2023-02-23T06:58:58.058Z,33.67
2023-02-23T06:59:33.281Z,32.70
2023-02-23T07:00:05.586Z,32.87
2023-02-23T07:00:38.095Z,33.03
2023-02-23T07:01:12.842Z,34.33
2023-02-23T07:01:44.771Z,32.77
2023-02-23T07:02:17.539Z,30.83
2023-02-23T07:02:49.454Z,32.87
2023-02-23T07:03:21.175Z,33.20
2023-02-23T07:03:53.008Z,31.50
2023-02-23T07:04:24.855Z,30.90
2023-02-23T07:04:56.546Z,30.87
2023-02-23T07:05:28.473Z,32.13
2023-02-23T07:06:00.219Z,32.37
2023-02-23T07:06:33.415Z,31.47
2023-02-23T07:07:05.619Z,32.13
2023-02-23T07:07:37.534Z,31.87
2023-02-23T07:08:21.864Z,31.30
2023-02-23T07:08:53.572Z,30.00
2023-02-23T07:09:34.433Z,29.47
2023-02-23T07:10:07.089Z,29.53
2023-02-23T07:10:38.825Z,30.80
2023-02-23T07:11:13.565Z,30.63
2023-02-23T07:11:48.915Z,31.10
2023-02-23T07:12:21.222Z,30.60
2023-02-23T07:12:56.450Z,31.80
2023-02-23T07:13:28.157Z,31.80
2023-02-23T07:14:01.486Z,30.47
2023-02-23T07:14:36.250Z,30.67
2023-02-23T07:15:08.672Z,29.53
2023-02-23T07:15:41.717Z,29.97
2023-02-23T07:16:14.948Z,29.93
2023-02-23T07:16:46.765Z,29.47
2023-02-23T07:17:18.474Z,28.73
2023-02-23T07:17:52.707Z,28.83
2023-02-23T07:18:24.864Z,29.03
2023-02-23T07:18:56.614Z,28.30
2023-02-23T07:19:28.891Z,28.73
2023-02-23T07:20:00.583Z,28.63
2023-02-23T07:20:34.213Z,28.20
2023-02-23T07:21:24.187Z,27.40
2023-02-23T07:21:56.788Z,27.20
2023-02-23T07:22:30.460Z,26.40
2023-02-23T07:23:02.298Z,24.90
2023-02-23T07:23:34.340Z,25.90
2023-02-23T07:24:06.358Z,25.20
2023-02-23T07:24:38.859Z,26.23
2023-02-23T07:25:10.729Z,26.03
2023-02-23T07:25:42.468Z,25.80
2023-02-23T07:26:15.951Z,26.10
2023-02-23T07:26:49.471Z,25.07
2023-02-23T07:27:21.156Z,25.00
2023-02-23T07:27:54.236Z,25.80
2023-02-23T07:28:27.462Z,24.97
2023-02-23T07:28:59.939Z,25.10
2023-02-23T07:29:31.597Z,23.70
2023-02-23T07:30:04.188Z,23.37
2023-02-23T07:30:35.911Z,22.80
2023-02-23T07:31:07.761Z,23.57
2023-02-23T07:31:40.155Z,22.90
2023-02-23T07:32:12.015Z,22.93
2023-02-23T07:32:43.873Z,23.20
2023-02-23T07:33:16.863Z,22.80
2023-02-23T07:33:48.547Z,22.87
2023-02-23T07:34:20.248Z,23.47
2023-02-23T07:34:53.816Z,23.57
2023-02-23T07:35:25.768Z,22.27
2023-02-23T07:35:57.438Z,22.27
2023-02-23T07:36:29.160Z,22.30
2023-02-23T07:37:00.809Z,22.57
2023-02-23T07:37:32.553Z,22.60
2023-02-23T07:38:05.671Z,22.23
2023-02-23T07:38:37.481Z,22.67
2023-02-23T07:39:09.202Z,21.97
2023-02-23T07:39:40.919Z,23.13
2023-02-23T07:40:13.392Z,21.83
2023-02-23T07:40:45.053Z,20.93
2023-02-23T07:41:17.107Z,21.57
2023-02-23T07:41:48.933Z,21.87
2023-02-23T07:42:20.648Z,22.13
2023-02-23T07:42:52.929Z,22.23
2023-02-23T07:43:27.465Z,21.90
2023-02-23T07:43:59.730Z,21.37
2023-02-23T07:44:34.336Z,21.77
2023-02-23T07:45:07.969Z,22.83
2023-02-23T07:45:42.676Z,23.03
2023-02-23T07:46:30.957Z,22.57
2023-02-23T07:47:52.526Z,21.77
2023-02-23T07:48:28.729Z,22.63
2023-02-23T07:49:00.946Z,23.10
2023-02-23T07:49:34.374Z,22.43
2023-02-23T07:50:12.881Z,23.27
2023-02-23T07:50:45.057Z,22.73
2023-02-23T07:51:17.847Z,22.13
2023-02-23T07:51:49.757Z,22.53
2023-02-23T07:52:21.576Z,21.63
2023-02-23T07:52:54.402Z,22.30
2023-02-23T07:53:28.030Z,21.40
2023-02-23T07:54:05.105Z,21.17
2023-02-23T07:54:36.835Z,22.43
2023-02-23T07:55:13.582Z,21.80
2023-02-23T07:55:45.870Z,20.67
2023-02-23T07:56:23.805Z,20.60
2023-02-23T07:56:56.845Z,21.50
2023-02-23T07:57:28.526Z,21.67
2023-02-23T07:58:00.302Z,20.43